createdAt,value
2023-03-26T00:01:00.728Z,84.90
2023-03-26T00:06:15.724Z,84.95
2023-03-26T00:11:21.943Z,85.02
2023-03-26T00:16:28.896Z,85.17
2023-03-26T00:21:32.002Z,85.15
2023-03-26T00:26:38.575Z,85.11
2023-03-26T00:31:46.390Z,85.07
2023-03-26T00:36:54.443Z,85.07
2023-03-26T00:41:57.308Z,85.04
2023-03-26T00:47:00.345Z,84.99
2023-03-26T00:52:03.617Z,84.97
2023-03-26T00:57:06.962Z,84.99
2023-03-26T01:02:17.613Z,84.99
2023-03-26T01:07:21.900Z,84.99
2023-03-26T01:12:29.467Z,85.04
2023-03-26T01:17:38.000Z,85.00
2023-03-26T01:22:52.272Z,85.08
2023-03-26T01:27:56.912Z,85.02
2023-03-26T01:33:13.944Z,85.05
2023-03-26T01:38:46.880Z,85.15
2023-03-26T01:44:20.571Z,85.19
2023-03-26T01:49:23.385Z,85.11
2023-03-26T01:54:31.540Z,85.14
2023-03-26T01:59:58.650Z,85.11
2023-03-26T02:05:42.639Z,85.16
2023-03-26T02:10:51.216Z,85.23
2023-03-26T02:16:07.560Z,85.35
2023-03-26T02:21:21.888Z,85.43
2023-03-26T02:26:25.718Z,85.33
2023-03-26T02:31:30.220Z,85.47
2023-03-26T02:36:33.377Z,85.49
2023-03-26T02:41:40.606Z,85.52
2023-03-26T02:46:43.458Z,85.54
2023-03-26T02:51:46.326Z,85.61
2023-03-26T02:56:49.228Z,85.67
2023-03-26T03:01:52.164Z,85.71
2023-03-26T03:06:57.701Z,85.85
2023-03-26T03:12:00.842Z,86.02
2023-03-26T03:17:04.029Z,85.99
2023-03-26T03:22:06.954Z,86.04
2023-03-26T03:27:10.141Z,86.32
2023-03-26T03:32:13.065Z,86.32
2023-03-26T03:37:16.018Z,86.46
2023-03-26T03:42:18.973Z,86.71
2023-03-26T03:47:23.107Z,86.76
2023-03-26T03:52:28.095Z,86.87
2023-03-26T03:57:32.086Z,86.92
2023-03-26T04:02:35.691Z,86.97
2023-03-26T04:07:38.879Z,87.15
2023-03-26T04:12:41.873Z,87.53
2023-03-26T04:17:45.478Z,87.58
2023-03-26T04:22:48.393Z,87.66
2023-03-26T04:27:51.338Z,87.60
2023-03-26T04:32:58.600Z,87.64
2023-03-26T04:38:06.587Z,87.75
2023-03-26T04:43:16.423Z,87.92
2023-03-26T04:48:20.533Z,87.95
2023-03-26T04:53:24.323Z,87.92
2023-03-26T04:58:36.005Z,88.08
2023-03-26T05:03:39.295Z,88.03
2023-03-26T05:08:42.259Z,88.07
2023-03-26T05:13:45.339Z,88.19
2023-03-26T05:18:48.305Z,88.15
2023-03-26T05:23:51.502Z,88.14
2023-03-26T05:28:54.351Z,88.03
2023-03-26T05:34:00.511Z,88.15
2023-03-26T05:39:04.196Z,88.14
2023-03-26T05:44:07.321Z,88.08
2023-03-26T05:49:10.389Z,88.08
2023-03-26T05:54:13.306Z,88.01
2023-03-26T05:59:16.548Z,87.97
2023-03-26T06:04:19.979Z,87.96
2023-03-26T06:09:23.041Z,87.97
2023-03-26T06:14:26.154Z,87.84
2023-03-26T06:19:29.198Z,87.79
2023-03-26T06:24:33.508Z,87.69
2023-03-26T06:29:36.499Z,87.61
2023-03-26T06:34:39.611Z,87.57
2023-03-26T06:39:43.528Z,87.43
2023-03-26T06:44:46.500Z,87.46
2023-03-26T06:49:49.431Z,86.72
2023-03-26T06:54:52.298Z,86.74
2023-03-26T06:59:55.250Z,86.84
2023-03-26T07:04:58.520Z,86.41
2023-03-26T07:10:01.994Z,86.29
2023-03-26T07:15:06.246Z,86.03
2023-03-26T07:20:10.660Z,86.03
2023-03-26T07:25:15.626Z,85.86
2023-03-26T07:30:59.983Z,85.82
2023-03-26T07:36:32.228Z,85.43
2023-03-26T07:41:57.594Z,85.46
2023-03-26T07:47:04.878Z,85.28
2023-03-26T07:52:11.549Z,84.76
2023-03-26T07:57:33.444Z,84.51
2023-03-26T08:02:57.302Z,84.31
2023-03-26T08:08:36.052Z,83.57
2023-03-26T08:14:17.062Z,83.06
2023-03-26T08:19:34.987Z,82.93
2023-03-26T08:25:05.432Z,82.67
2023-03-26T08:30:20.749Z,81.47
2023-03-26T08:35:25.936Z,81.61
2023-03-26T08:41:05.388Z,81.36
2023-03-26T08:46:42.210Z,81.34
2023-03-26T08:52:16.669Z,81.20
2023-03-26T08:57:55.043Z,80.89
2023-03-26T09:03:23.155Z,80.90
2023-03-26T09:08:53.933Z,80.83
2023-03-26T09:14:09.298Z,80.45
2023-03-26T09:19:53.743Z,80.43
2023-03-26T09:25:14.914Z,79.78
2023-03-26T09:30:33.086Z,80.23
2023-03-26T09:35:55.231Z,80.87
2023-03-26T09:41:15.663Z,81.13
2023-03-26T09:46:36.885Z,81.47
2023-03-26T09:52:10.278Z,81.85
2023-03-26T09:57:37.750Z,82.39
2023-03-26T10:03:12.515Z,82.35
2023-03-26T10:08:42.275Z,80.90
2023-03-26T10:14:07.373Z,79.17
2023-03-26T10:19:29.492Z,79.93
2023-03-26T10:24:57.492Z,79.76
2023-03-26T10:30:22.181Z,79.66
2023-03-26T10:35:30.470Z,79.63
2023-03-26T10:40:43.837Z,79.54
2023-03-26T10:46:29.823Z,79.29
2023-03-26T10:51:55.998Z,79.00
2023-03-26T10:57:06.339Z,78.99
2023-03-26T11:02:59.625Z,78.61
2023-03-26T11:08:18.015Z,76.85
2023-03-26T11:13:46.661Z,76.53
2023-03-26T11:19:00.987Z,76.61
2023-03-26T11:24:24.937Z,76.11
2023-03-26T11:29:39.528Z,75.10
2023-03-26T11:35:08.413Z,73.17
2023-03-26T11:40:21.545Z,72.06
2023-03-26T11:45:30.957Z,71.64
2023-03-26T11:50:41.697Z,70.39
2023-03-26T19:03:47.150Z,84.19
2023-03-26T19:08:51.256Z,84.07
2023-03-26T19:14:21.218Z,85.13
2023-03-26T19:19:33.012Z,87.60
2023-03-26T19:24:40.545Z,87.16
2023-03-26T19:29:45.056Z,87.07
2023-03-26T19:34:52.259Z,86.04
2023-03-26T19:40:22.307Z,85.38
2023-03-26T19:45:26.572Z,84.93
2023-03-26T19:50:34.199Z,84.79
2023-03-26T19:55:43.055Z,84.04
2023-03-26T20:00:48.881Z,83.94
2023-03-26T20:05:52.319Z,83.43
2023-03-26T20:11:04.447Z,83.57
2023-03-26T20:16:35.184Z,83.75
2023-03-26T20:21:44.528Z,83.97
2023-03-26T20:26:48.289Z,84.21
2023-03-26T20:31:55.300Z,84.01
2023-03-26T20:37:21.630Z,84.00
2023-03-26T20:42:24.861Z,83.97
2023-03-26T20:47:30.814Z,83.22
2023-03-26T20:52:34.243Z,82.25
2023-03-26T20:57:37.242Z,82.17
2023-03-26T21:02:47.929Z,81.91
2023-03-26T21:07:54.644Z,81.64
2023-03-26T21:13:27.422Z,81.33
2023-03-26T21:18:42.674Z,81.50
2023-03-26T21:24:05.669Z,81.59
2023-03-26T21:29:19.228Z,81.79
2023-03-26T21:34:37.630Z,81.92
2023-03-26T21:39:45.020Z,82.01
2023-03-26T21:44:48.788Z,81.99
2023-03-26T21:49:54.947Z,81.98
2023-03-26T21:55:04.513Z,81.96
2023-03-26T22:00:20.797Z,81.96
2023-03-26T22:05:54.014Z,82.00
2023-03-26T22:10:59.808Z,82.00
2023-03-26T22:16:02.955Z,82.06
2023-03-26T22:21:07.195Z,81.94
2023-03-26T22:26:10.393Z,82.11
2023-03-26T22:31:26.545Z,82.13
2023-03-26T22:36:33.265Z,82.11
2023-03-26T22:41:47.172Z,82.32
2023-03-26T22:46:54.617Z,82.93
2023-03-26T22:52:06.237Z,82.86
2023-03-26T22:57:18.238Z,83.96
2023-03-26T23:02:27.302Z,83.21
2023-03-26T23:07:53.729Z,82.97
2023-03-26T23:13:05.794Z,82.90
2023-03-26T23:18:19.533Z,82.89
2023-03-26T23:23:32.233Z,82.88
2023-03-26T23:28:41.129Z,83.07
2023-03-26T23:34:01.466Z,83.11
2023-03-26T23:39:50.072Z,83.05
2023-03-26T23:45:06.350Z,83.06
2023-03-26T23:50:29.269Z,83.04
2023-03-26T23:55:49.928Z,82.98
